Time;durP1;ratioP1;P1;durP2;ratioP2;P2;SDS_P1;SDS_P2;PMS_P1;PMS_P2;Temp;Humidity;BMP_temperature;BMP_pressure;BME280_temperature;BME280_humidity;BME280_pressure;Samples;Min_cycle;Max_cycle;Signal;HPM_P1;HPM_P2
2021/01/06 00:02:09;;;;;;;11.63;7.85;;;;;;;1.85;78.14;98497.50;5092017;28;20040;-63
2021/01/06 00:04:36;;;;;;;9.75;7.68;;;;;;;1.89;78.04;98500.63;5091855;28;20048;-63
2021/01/06 00:07:03;;;;;;;11.38;7.25;;;;;;;1.86;77.98;98499.13;5090659;28;20043;-63
2021/01/06 00:09:30;;;;;;;9.73;7.80;;;;;;;1.85;77.90;98489.69;5091987;28;20040;-63
2021/01/06 00:11:56;;;;;;;9.98;7.88;;;;;;;1.87;77.83;98495.53;5091913;28;20040;-63
2021/01/06 00:14:23;;;;;;;9.10;7.32;;;;;;;1.87;77.80;98499.94;5091746;28;20047;-63
2021/01/06 00:16:53;;;;;;;9.50;7.25;;;;;;;1.83;78.04;98488.16;5091281;28;20044;-64
2021/01/06 00:19:21;;;;;;;10.88;7.43;;;;;;;1.84;77.96;98498.47;5092184;28;20047;-64
2021/01/06 00:21:48;;;;;;;8.60;6.80;;;;;;;1.85;77.79;98489.69;5091794;28;20046;-63
2021/01/06 00:24:15;;;;;;;9.75;7.47;;;;;;;1.74;78.01;98482.84;5091747;28;20052;-63
2021/01/06 00:26:41;;;;;;;10.15;7.57;;;;;;;1.76;77.95;98484.53;5091915;28;20043;-63
2021/01/06 00:29:09;;;;;;;11.10;7.80;;;;;;;1.72;78.10;98487.41;5090822;28;20063;-63
2021/01/06 00:31:37;;;;;;;8.75;7.50;;;;;;;1.77;77.97;98486.16;5092031;28;20047;-63
2021/01/06 00:34:05;;;;;;;8.05;6.57;;;;;;;1.82;78.11;98487.34;5091907;28;20055;-63
2021/01/06 00:36:33;;;;;;;9.00;7.10;;;;;;;1.82;78.00;98482.13;5091683;28;20036;-63
2021/01/06 00:39:00;;;;;;;9.57;7.47;;;;;;;1.80;77.95;98483.25;5091911;28;20048;-64
2021/01/06 00:41:27;;;;;;;7.95;7.05;;;;;;;1.77;77.67;98483.53;5090323;28;20375;-63
2021/01/06 00:43:54;;;;;;;11.50;8.23;;;;;;;1.79;77.69;98487.63;5090681;28;20051;-63
2021/01/06 00:46:22;;;;;;;9.55;7.40;;;;;;;1.79;77.89;98485.03;5091861;28;20032;-63
2021/01/06 00:48:50;;;;;;;9.85;8.05;;;;;;;1.80;78.05;98491.09;5090574;28;20044;-63
2021/01/06 00:51:16;;;;;;;11.00;8.20;;;;;;;1.80;77.75;98484.09;5092089;28;20048;-63
2021/01/06 00:53:44;;;;;;;9.20;7.78;;;;;;;1.75;77.86;98486.28;5092005;28;20075;-63
2021/01/06 00:56:10;;;;;;;9.15;7.20;;;;;;;1.78;77.89;98482.56;5090580;28;20040;-63
2021/01/06 00:58:38;;;;;;;9.38;8.00;;;;;;;1.80;78.13;98483.25;5090683;28;20135;-63
2021/01/06 01:01:10;;;;;;;11.13;7.53;;;;;;;1.85;78.01;98481.03;5090883;28;20044;-63
2021/01/06 01:03:41;;;;;;;12.57;8.10;;;;;;;1.82;77.94;98479.53;5090357;28;20578;-64
2021/01/06 01:06:08;;;;;;;8.95;6.80;;;;;;;1.75;77.80;98486.28;5091342;28;20073;-64
2021/01/06 01:08:35;;;;;;;11.20;7.95;;;;;;;1.74;77.90;98492.47;5091505;28;20494;-64
2021/01/06 01:11:03;;;;;;;10.80;7.85;;;;;;;1.79;78.29;98492.03;5091512;28;20044;-64
2021/01/06 01:13:29;;;;;;;9.48;7.53;;;;;;;1.89;78.14;98496.25;5091562;28;20040;-64
2021/01/06 01:15:58;;;;;;;10.27;8.27;;;;;;;1.90;77.64;98497.06;5091155;28;20040;-64
2021/01/06 01:18:26;;;;;;;10.60;7.82;;;;;;;1.81;77.60;98492.72;5091450;28;20048;-64
2021/01/06 01:20:55;;;;;;;9.60;8.05;;;;;;;1.82;77.78;98496.97;5091334;28;20037;-64
2021/01/06 01:23:24;;;;;;;11.77;8.73;;;;;;;1.86;77.89;98500.91;5090054;28;20059;-64
2021/01/06 01:25:52;;;;;;;10.13;8.25;;;;;;;1.87;77.93;98502.56;5091061;28;20429;-64
2021/01/06 01:28:22;;;;;;;11.18;8.13;;;;;;;1.91;77.87;98498.69;5091351;28;20058;-64
2021/01/06 01:30:50;;;;;;;9.43;7.30;;;;;;;1.92;77.57;98500.34;5095002;28;20048;-64
2021/01/06 01:33:17;;;;;;;10.82;8.20;;;;;;;1.83;77.46;98501.19;5094913;28;20040;-64
2021/01/06 01:35:44;;;;;;;9.90;7.75;;;;;;;1.77;77.51;98496.56;5094664;28;20486;-64
2021/01/06 01:38:14;;;;;;;10.60;7.78;;;;;;;1.76;77.59;98515.78;5095098;28;20040;-64
2021/01/06 01:40:41;;;;;;;10.15;7.90;;;;;;;1.71;77.54;98504.00;5094841;28;20052;-64
2021/01/06 01:43:16;;;;;;;9.70;8.00;;;;;;;1.61;78.15;98503.22;5094567;28;20090;-64
2021/01/06 01:46:27;;;;;;;11.07;8.68;;;;;;;1.66;78.17;98508.81;5094493;28;20054;-64
2021/01/06 01:48:56;;;;;;;10.68;8.07;;;;;;;1.75;78.07;98514.94;5094653;28;20058;-64
2021/01/06 01:51:33;;;;;;;11.27;8.23;;;;;;;1.80;78.14;98504.94;5094462;28;20056;-64
2021/01/06 01:54:03;;;;;;;11.00;7.97;;;;;;;1.84;77.86;98510.69;5094641;28;20517;-64
2021/01/06 01:56:35;;;;;;;11.20;8.43;;;;;;;1.82;77.76;98516.03;5092931;28;20593;-64
2021/01/06 01:59:07;;;;;;;10.65;8.45;;;;;;;1.81;77.94;98503.97;5093213;28;20052;-64
2021/01/06 02:01:35;;;;;;;14.80;8.13;;;;;;;1.83;77.82;98509.84;5094360;28;20145;-64
2021/01/06 02:04:09;;;;;;;12.20;8.45;;;;;;;1.85;77.75;98507.09;5094312;28;20474;-64
2021/01/06 02:06:42;;;;;;;10.57;8.32;;;;;;;1.75;77.64;98501.91;5094154;28;20048;-64
2021/01/06 02:09:13;;;;;;;11.25;8.45;;;;;;;1.76;77.78;98507.97;5094442;28;20040;-64
2021/01/06 02:11:43;;;;;;;10.85;8.48;;;;;;;1.74;77.79;98503.69;5094205;28;20040;-63
2021/01/06 02:14:15;;;;;;;9.77;7.32;;;;;;;1.76;78.00;98497.56;5094104;28;20048;-63
2021/01/06 02:16:48;;;;;;;12.55;8.20;;;;;;;1.87;78.09;98499.94;5094141;28;20109;-63
2021/01/06 02:19:19;;;;;;;10.25;8.25;;;;;;;1.84;77.78;98492.44;5094142;28;20098;-63
2021/01/06 02:21:46;;;;;;;10.00;7.80;;;;;;;1.81;77.80;98501.34;5093944;28;20051;-63
2021/01/06 02:24:14;;;;;;;11.05;8.18;;;;;;;1.85;77.99;98497.50;5093674;28;20048;-63
2021/01/06 02:26:41;;;;;;;12.30;8.15;;;;;;;1.86;77.92;98498.31;5093777;28;20048;-64
2021/01/06 02:29:08;;;;;;;9.13;7.00;;;;;;;1.88;77.63;98499.00;5092481;28;20076;-63
2021/01/06 02:31:35;;;;;;;10.70;7.75;;;;;;;1.77;77.63;98499.19;5093719;28;20036;-63
2021/01/06 02:34:02;;;;;;;9.10;7.25;;;;;;;1.78;77.75;98501.63;5093717;28;20066;-63
2021/01/06 02:36:29;;;;;;;10.73;7.45;;;;;;;1.78;77.64;98504.25;5093418;28;20051;-64
2021/01/06 02:38:57;;;;;;;10.73;8.20;;;;;;;1.77;77.79;98499.19;5093258;28;20047;-63
2021/01/06 02:41:24;;;;;;;9.75;7.35;;;;;;;1.80;77.78;98498.91;5092253;28;20055;-63
2021/01/06 02:43:51;;;;;;;10.40;7.72;;;;;;;1.84;77.74;98502.88;5093561;28;20054;-63
2021/01/06 02:46:20;;;;;;;9.60;7.35;;;;;;;1.84;77.74;98500.25;5093187;28;20512;-63
2021/01/06 02:48:47;;;;;;;9.77;7.28;;;;;;;1.88;77.82;98496.41;5093500;28;20047;-63
2021/01/06 02:51:18;;;;;;;10.02;8.15;;;;;;;1.92;77.80;98498.56;5093305;28;20048;-64
2021/01/06 02:53:49;;;;;;;8.93;7.28;;;;;;;1.92;77.10;98495.97;5093406;28;20044;-63
2021/01/06 02:56:18;;;;;;;8.48;7.38;;;;;;;1.85;77.30;98494.88;5093125;28;20130;-63
2021/01/06 02:58:47;;;;;;;8.70;6.63;;;;;;;1.86;77.36;98499.13;5093390;28;20437;-63
2021/01/06 03:01:16;;;;;;;7.65;6.68;;;;;;;1.82;77.34;98486.53;5093176;28;20036;-63
2021/01/06 03:03:45;;;;;;;8.20;6.60;;;;;;;1.78;77.30;98493.81;5093251;28;20043;-63
2021/01/06 03:06:18;;;;;;;7.78;6.43;;;;;;;1.74;77.57;98492.47;5093165;28;20044;-63
2021/01/06 03:08:45;;;;;;;7.90;6.25;;;;;;;1.74;77.33;98493.28;5093113;28;20501;-63
2021/01/06 03:11:12;;;;;;;9.25;6.60;;;;;;;1.74;77.55;98492.47;5093134;28;20044;-63
2021/01/06 03:13:40;;;;;;;8.05;6.88;;;;;;;1.73;77.45;98491.66;5092978;28;20046;-63
2021/01/06 03:16:07;;;;;;;8.23;6.63;;;;;;;1.73;77.72;98489.03;5092566;28;20044;-63
2021/01/06 03:18:34;;;;;;;12.55;7.47;;;;;;;1.72;77.49;98490.00;5093017;28;20657;-63
2021/01/06 03:21:05;;;;;;;8.73;6.88;;;;;;;1.72;77.61;98497.81;5092725;28;20051;-63
2021/01/06 03:23:35;;;;;;;8.68;7.03;;;;;;;1.72;77.65;98491.81;5092873;28;20055;-64
2021/01/06 03:26:07;;;;;;;8.52;7.18;;;;;;;1.70;77.65;98488.50;5092625;28;20048;-63
2021/01/06 03:28:36;;;;;;;8.60;6.30;;;;;;;1.69;77.69;98494.69;5092708;28;20040;-64
2021/01/06 03:31:09;;;;;;;9.32;7.03;;;;;;;1.69;78.13;98492.09;5091335;28;20048;-63
2021/01/06 03:33:40;;;;;;;9.50;6.82;;;;;;;1.81;77.94;98485.72;5093069;28;20537;-64
2021/01/06 03:36:11;;;;;;;8.90;6.75;;;;;;;1.82;77.71;98484.75;5092392;28;20050;-64
2021/01/06 03:38:41;;;;;;;8.82;6.55;;;;;;;1.81;77.55;98488.31;5092637;28;20695;-63
2021/01/06 03:41:09;;;;;;;7.60;6.32;;;;;;;1.82;77.63;98491.75;5092721;28;20048;-63
2021/01/06 03:43:41;;;;;;;7.95;6.43;;;;;;;1.78;77.48;98480.78;5091341;28;20413;-63
2021/01/06 03:46:18;;;;;;;8.07;5.93;;;;;;;1.81;77.54;98485.72;5092224;28;20536;-63
2021/01/06 03:48:58;;;;;;;6.78;5.90;;;;;;;1.81;76.98;98477.91;5092601;28;20040;-63
2021/01/06 03:51:32;;;;;;;7.53;6.25;;;;;;;1.82;77.27;98478.72;5092176;28;20036;-63
2021/01/06 03:54:05;;;;;;;7.82;6.13;;;;;;;1.82;77.44;98482.13;5092617;28;20039;-63
2021/01/06 03:56:39;;;;;;;8.10;6.32;;;;;;;1.80;77.35;98473.66;5092107;28;20040;-63
2021/01/06 03:59:12;;;;;;;7.67;6.10;;;;;;;1.80;77.40;98478.06;5092950;28;20405;-63
2021/01/06 04:01:57;;;;;;;8.30;6.30;;;;;;;1.78;77.38;98470.34;5092420;28;20490;-63
2021/01/06 04:04:29;;;;;;;7.75;5.82;;;;;;;1.72;77.18;98466.56;5092732;28;20051;-63
2021/01/06 04:06:58;;;;;;;7.78;6.15;;;;;;;1.73;77.46;98464.75;5092379;28;20051;-64
2021/01/06 04:09:33;;;;;;;8.18;6.60;;;;;;;1.74;77.48;98466.41;5092521;28;20044;-64
2021/01/06 04:12:06;;;;;;;7.10;5.50;;;;;;;1.73;77.40;98456.94;5093174;28;20122;-63
2021/01/06 04:14:33;;;;;;;7.05;6.00;;;;;;;1.69;77.29;98453.81;5093281;28;20089;-63
2021/01/06 04:17:13;;;;;;;7.28;5.85;;;;;;;1.68;77.50;98452.19;5093331;28;20096;-63
2021/01/06 04:19:43;;;;;;;8.57;6.18;;;;;;;1.69;77.70;98453.00;5092061;28;20052;-64
2021/01/06 04:22:10;;;;;;;8.07;6.20;;;;;;;1.68;77.81;98440.94;5092016;28;20040;-63
2021/01/06 04:24:36;;;;;;;7.45;5.53;;;;;;;1.71;77.59;98449.28;5092090;28;20102;-64
2021/01/06 04:27:04;;;;;;;7.18;5.55;;;;;;;1.70;77.59;98452.03;5091968;28;20052;-63
2021/01/06 04:29:30;;;;;;;7.75;6.03;;;;;;;1.71;77.62;98436.25;5092054;28;20493;-63
2021/01/06 04:31:57;;;;;;;7.03;5.40;;;;;;;1.73;77.71;98436.09;5092070;28;20059;-63
2021/01/06 04:34:25;;;;;;;7.40;5.80;;;;;;;1.70;77.48;98447.63;5091614;28;20055;-64
2021/01/06 04:36:51;;;;;;;7.97;6.07;;;;;;;1.69;77.45;98434.75;5090633;28;20425;-63
2021/01/06 04:39:18;;;;;;;7.95;5.97;;;;;;;1.68;77.69;98439.16;5091977;28;20055;-63
2021/01/06 04:41:55;;;;;;;6.95;5.90;;;;;;;1.66;77.60;98430.63;5091949;28;20032;-63
2021/01/06 04:44:40;;;;;;;6.78;5.93;;;;;;;1.68;77.56;98440.94;5091848;28;20058;-63
2021/01/06 04:47:29;;;;;;;7.25;6.00;;;;;;;1.68;77.77;98439.16;5092073;28;20048;-63
2021/01/06 04:50:25;;;;;;;14.95;10.75;;;;;;;1.73;77.80;98444.75;5091971;28;20051;-64
2021/01/06 04:53:02;;;;;;;9.15;6.82;;;;;;;1.75;77.80;98441.97;5091747;28;20105;-63
2021/01/06 04:55:35;;;;;;;8.82;5.53;;;;;;;1.73;77.46;98449.13;5092350;28;20055;-63
2021/01/06 04:58:15;;;;;;;7.63;6.18;;;;;;;1.69;77.44;98448.59;5091908;28;20429;-63
2021/01/06 05:00:53;;;;;;;6.78;5.60;;;;;;;1.69;77.70;98453.00;5091681;28;20047;-63
2021/01/06 05:03:35;;;;;;;8.70;5.97;;;;;;;1.73;77.76;98451.75;5093714;28;20043;-64
2021/01/06 05:06:39;;;;;;;7.90;5.78;;;;;;;1.69;77.79;98453.00;5095196;28;20052;-63
2021/01/06 05:09:14;;;;;;;8.10;6.20;;;;;;;1.74;77.87;98448.16;5095501;28;20097;-63
2021/01/06 05:11:53;;;;;;;7.05;6.05;;;;;;;1.81;78.14;98448.41;5095368;28;20490;-63
2021/01/06 05:14:24;;;;;;;7.30;6.03;;;;;;;1.85;77.79;98449.75;5095223;28;20508;-63
2021/01/06 05:16:53;;;;;;;7.93;5.85;;;;;;;1.84;77.47;98456.75;5095240;28;20052;-63
2021/01/06 05:19:22;;;;;;;8.98;6.63;;;;;;;1.78;77.33;98456.50;5095238;28;20051;-64
2021/01/06 05:21:51;;;;;;;8.60;6.78;;;;;;;1.74;77.38;98461.19;5095081;28;20040;-63
2021/01/06 05:24:26;;;;;;;9.95;6.18;;;;;;;1.70;77.74;98463.25;5094860;28;20408;-63
2021/01/06 05:27:00;;;;;;;6.75;5.82;;;;;;;1.70;77.76;98463.25;5095080;28;20046;-63
2021/01/06 05:29:29;;;;;;;8.10;5.80;;;;;;;1.68;77.65;98462.59;5095207;28;20058;-63
2021/01/06 05:31:56;;;;;;;8.73;6.13;;;;;;;1.55;77.87;98466.47;5095107;28;20460;-64
2021/01/06 05:34:23;;;;;;;7.60;5.78;;;;;;;1.62;77.96;98467.56;5094612;28;20382;-64
2021/01/06 05:36:52;;;;;;;7.53;5.68;;;;;;;1.63;77.96;98466.59;5094873;28;20504;-64
2021/01/06 05:39:22;;;;;;;7.30;5.80;;;;;;;1.67;77.85;98466.19;5094954;28;20127;-64
2021/01/06 05:41:50;;;;;;;9.73;6.97;;;;;;;1.68;77.98;98456.56;5095006;28;20036;-64
2021/01/06 05:44:17;;;;;;;13.52;8.55;;;;;;;1.71;77.94;98458.88;5094681;28;20115;-63
2021/01/06 05:46:46;;;;;;;8.05;7.05;;;;;;;1.70;77.96;98460.66;5094575;28;20048;-63
2021/01/06 05:49:21;;;;;;;7.22;6.05;;;;;;;1.69;77.84;98461.63;5094547;28;20387;-64
2021/01/06 05:51:56;;;;;;;7.18;5.85;;;;;;;1.65;77.94;98459.47;5094694;28;20039;-64
2021/01/06 05:54:38;;;;;;;10.63;7.05;;;;;;;1.70;78.20;98463.25;5094256;28;20059;-63
2021/01/06 05:57:14;;;;;;;12.32;6.97;;;;;;;1.71;77.95;98458.88;5094397;28;20059;-63
2021/01/06 06:00:06;;;;;;;9.68;7.38;;;;;;;1.71;78.05;98458.88;5094483;28;20406;-63
2021/01/06 06:02:39;;;;;;;8.95;6.47;;;;;;;1.78;77.90;98461.72;5094400;28;20036;-63
2021/01/06 06:05:19;;;;;;;9.57;6.85;;;;;;;1.69;77.72;98464.22;5094307;28;20043;-64
2021/01/06 06:08:05;;;;;;;10.07;7.72;;;;;;;1.69;78.27;98464.22;5094262;28;20054;-63
2021/01/06 06:10:48;;;;;;;9.68;7.22;;;;;;;1.76;78.04;98463.66;5093145;28;20135;-64
2021/01/06 06:13:48;;;;;;;8.55;6.65;;;;;;;1.81;78.18;98475.28;5093862;28;20032;-62
2021/01/06 06:16:46;;;;;;;10.15;6.55;;;;;;;1.81;77.75;98472.69;5094115;28;20058;-63
2021/01/06 06:19:38;;;;;;;10.75;7.20;;;;;;;1.80;77.82;98470.22;5060317;28;20048;-63
2021/01/06 06:22:16;;;;;;;10.07;7.45;;;;;;;1.82;77.38;98476.91;5094081;28;20676;-63
2021/01/06 06:24:50;;;;;;;8.90;6.32;;;;;;;1.78;77.77;98472.97;5093825;28;20145;-63
2021/01/06 06:27:38;;;;;;;8.30;6.40;;;;;;;1.76;77.79;98474.09;5093965;28;20059;-63
2021/01/06 06:30:24;;;;;;;7.30;6.18;;;;;;;1.73;77.68;98472.59;5092624;28;20047;-63
2021/01/06 06:32:51;;;;;;;10.55;7.13;;;;;;;1.73;77.72;98473.41;5093892;28;20055;-63
2021/01/06 06:35:22;;;;;;;8.80;6.55;;;;;;;1.81;78.07;98477.91;5093541;28;20562;-63
2021/01/06 06:37:51;;;;;;;7.70;6.00;;;;;;;1.77;77.53;98478.34;5093857;28;20040;-63
2021/01/06 06:40:20;;;;;;;8.82;6.80;;;;;;;1.74;77.80;98476.81;5092400;28;20052;-63
2021/01/06 06:42:53;;;;;;;8.68;6.63;;;;;;;1.80;77.80;98485.88;5093521;28;20044;-63
2021/01/06 06:45:45;;;;;;;7.90;6.45;;;;;;;1.76;77.68;98482.72;5093303;28;20401;-63
2021/01/06 06:48:20;;;;;;;9.80;7.28;;;;;;;1.79;77.82;98484.22;5093433;28;20051;-63
2021/01/06 06:50:57;;;;;;;10.50;7.70;;;;;;;1.84;78.01;98485.44;5093542;28;20048;-63
2021/01/06 06:53:39;;;;;;;9.63;7.25;;;;;;;1.87;77.96;98494.72;5093406;28;20040;-63
2021/01/06 06:56:18;;;;;;;11.68;8.05;;;;;;;1.93;77.87;98488.94;5093014;28;20044;-63
2021/01/06 06:58:50;;;;;;;10.57;7.25;;;;;;;1.89;77.33;98491.03;5093595;28;20048;-63
2021/01/06 07:01:22;;;;;;;11.20;6.68;;;;;;;1.86;77.60;98498.31;5093158;28;20040;-63
2021/01/06 07:03:58;;;;;;;9.13;7.13;;;;;;;1.91;77.80;98491.69;5093087;28;20040;-63
2021/01/06 07:06:26;;;;;;;9.63;7.68;;;;;;;1.92;77.55;98498.56;5093094;28;20060;-63
2021/01/06 07:08:56;;;;;;;10.07;7.82;;;;;;;1.92;77.49;98495.97;5091938;28;20040;-63
2021/01/06 07:11:32;;;;;;;9.75;7.40;;;;;;;1.94;77.68;98501.00;5093072;28;20048;-63
2021/01/06 07:14:06;;;;;;;8.88;6.75;;;;;;;1.92;77.51;98493.34;5093067;28;20409;-63
2021/01/06 07:16:56;;;;;;;7.85;5.80;;;;;;;1.91;77.23;98499.50;5092605;28;20048;-63
2021/01/06 07:19:27;;;;;;;8.98;6.60;;;;;;;1.88;77.37;98506.81;5092930;28;20390;-63
2021/01/06 07:22:01;;;;;;;8.45;6.72;;;;;;;1.90;77.52;98503.09;5092857;28;20039;-63
2021/01/06 07:24:28;;;;;;;9.00;7.07;;;;;;;1.91;77.21;98506.50;5092645;28;20048;-63
2021/01/06 07:27:00;;;;;;;10.43;7.10;;;;;;;1.92;77.39;98509.00;5092647;28;20047;-63
2021/01/06 07:29:32;;;;;;;9.43;6.80;;;;;;;1.91;77.46;98509.13;5092800;28;20051;-63
2021/01/06 07:32:10;;;;;;;8.40;6.38;;;;;;;1.88;77.64;98515.47;5092619;28;20139;-63
2021/01/06 07:34:42;;;;;;;9.10;6.90;;;;;;;1.88;77.44;98512.84;5092523;28;20044;-63
2021/01/06 07:37:23;;;;;;;9.65;5.93;;;;;;;1.92;77.61;98513.38;5091395;28;20072;-63
2021/01/06 07:39:58;;;;;;;9.30;6.70;;;;;;;1.89;77.51;98518.88;5092621;28;20494;-63
2021/01/06 07:42:33;;;;;;;8.80;6.85;;;;;;;1.92;77.66;98519.41;5092483;28;20419;-63
2021/01/06 07:45:24;;;;;;;9.80;6.75;;;;;;;1.88;77.41;98518.06;5092423;28;20036;-63
2021/01/06 07:47:59;;;;;;;9.95;7.43;;;;;;;1.92;77.56;98519.41;5092535;28;20040;-63
2021/01/06 07:50:26;;;;;;;18.02;8.38;;;;;;;1.92;77.41;98522.03;5092315;28;20040;-63
2021/01/06 07:52:56;;;;;;;10.38;7.45;;;;;;;1.95;77.44;98528.72;5092449;28;20040;-63
2021/01/06 07:55:31;;;;;;;9.75;6.93;;;;;;;1.98;77.41;98529.25;5092066;28;20626;-63
2021/01/06 07:58:06;;;;;;;9.13;7.10;;;;;;;1.90;77.36;98533.56;5091151;28;20460;-63
2021/01/06 08:00:38;;;;;;;9.48;6.40;;;;;;;1.94;77.45;98537.50;5092236;28;20040;-63
2021/01/06 08:03:19;;;;;;;9.93;7.35;;;;;;;1.99;77.51;98538.72;5092167;28;20175;-63
2021/01/06 08:05:55;;;;;;;11.88;8.10;;;;;;;2.04;77.29;98540.06;5091973;28;20055;-63
2021/01/06 08:08:23;;;;;;;9.15;7.03;;;;;;;2.04;77.33;98542.66;5092287;28;20050;-63
2021/01/06 08:10:51;;;;;;;9.30;7.40;;;;;;;2.05;77.36;98537.31;5092034;28;20040;-63
2021/01/06 08:13:24;;;;;;;10.10;7.50;;;;;;;2.08;77.14;98538.81;5092073;28;20036;-63
2021/01/06 08:15:53;;;;;;;8.48;6.90;;;;;;;1.98;77.36;98544.06;5091784;28;20131;-63
2021/01/06 08:18:31;;;;;;;8.55;6.82;;;;;;;2.12;77.40;98547.97;5090634;28;20052;-63
2021/01/06 08:21:08;;;;;;;8.48;7.03;;;;;;;2.17;77.16;98545.78;5092065;28;20050;-63
2021/01/06 08:24:10;;;;;;;7.82;6.45;;;;;;;2.16;76.98;98544.97;5092100;28;20040;-63
2021/01/06 08:26:47;;;;;;;9.07;6.95;;;;;;;2.13;76.93;98549.66;5092018;28;20055;-63
2021/01/06 08:29:19;;;;;;;10.05;7.32;;;;;;;2.10;76.88;98537.72;5090775;28;20097;-63
2021/01/06 08:31:47;;;;;;;9.93;6.78;;;;;;;2.06;76.68;98540.75;5092051;28;20044;-63
2021/01/06 08:34:22;;;;;;;11.02;8.32;;;;;;;2.00;76.97;98550.00;5091909;28;20535;-63
2021/01/06 08:36:54;;;;;;;11.00;7.25;;;;;;;2.11;77.37;98541.94;5092459;28;20059;-63
2021/01/06 08:39:23;;;;;;;8.77;7.03;;;;;;;2.18;77.22;98542.19;5095952;28;20044;-63
2021/01/06 08:41:52;;;;;;;10.57;7.88;;;;;;;2.27;77.08;98546.53;5095925;28;20040;-63
2021/01/06 08:44:33;;;;;;;8.77;7.50;;;;;;;2.26;76.83;98544.91;5095652;28;20044;-63
2021/01/06 08:47:01;;;;;;;12.00;8.65;;;;;;;2.26;76.77;98546.69;5095937;28;20036;-63
2021/01/06 08:49:32;;;;;;;11.68;9.13;;;;;;;2.24;76.59;98544.22;5095920;28;20051;-64
2021/01/06 08:52:18;;;;;;;12.07;7.93;;;;;;;2.18;76.88;98550.03;5095804;28;20056;-64
2021/01/06 08:54:47;;;;;;;12.23;8.55;;;;;;;2.25;76.89;98551.09;5095521;28;20040;-64
2021/01/06 08:57:21;;;;;;;9.13;6.90;;;;;;;2.26;76.68;98552.72;5095662;28;20040;-64
2021/01/06 08:59:49;;;;;;;9.98;7.90;;;;;;;2.25;76.66;98552.88;5095550;28;20044;-64
2021/01/06 09:02:20;;;;;;;10.13;7.65;;;;;;;2.32;76.93;98553.91;5095489;28;20131;-64
2021/01/06 09:04:46;;;;;;;9.95;7.95;;;;;;;2.34;77.01;98552.00;5095556;28;20044;-64
2021/01/06 09:07:21;;;;;;;11.07;7.72;;;;;;;2.39;76.59;98565.41;5094108;28;20475;-64
2021/01/06 09:10:06;;;;;;;10.70;7.38;;;;;;;2.38;76.51;98555.97;5095737;28;20055;-63
2021/01/06 09:12:47;;;;;;;9.05;7.00;;;;;;;2.43;76.51;98559.75;5095311;28;20059;-63
2021/01/06 09:15:29;;;;;;;9.10;7.00;;;;;;;2.44;76.29;98564.00;5095007;28;20481;-63
2021/01/06 09:18:04;;;;;;;10.43;7.78;;;;;;;2.46;76.40;98563.88;5095363;28;20050;-63
2021/01/06 09:20:34;;;;;;;;;;;;;;;2.47;76.44;98561.09;5095710;28;20039;-63
2021/01/06 09:23:01;;;;;;;11.25;7.50;;;;;;;2.46;76.30;98563.88;5095130;28;19920;-63
2021/01/06 09:25:28;;;;;;;10.23;7.15;;;;;;;2.40;76.13;98569.66;5094887;28;20052;-63
2021/01/06 09:27:58;;;;;;;11.77;7.50;;;;;;;2.37;76.33;98576.00;5093752;28;20509;-63
2021/01/06 09:30:30;;;;;;;11.07;8.00;;;;;;;2.43;76.65;98575.41;5094977;28;20036;-62
2021/01/06 09:32:59;;;;;;;10.38;7.68;;;;;;;2.51;76.67;98572.06;5095122;28;20044;-63
2021/01/06 09:35:31;;;;;;;9.00;6.88;;;;;;;2.53;76.64;98574.53;5095001;28;20661;-63
2021/01/06 09:38:03;;;;;;;9.45;6.82;;;;;;;2.63;76.78;98577.91;5094980;28;20055;-63
2021/01/06 09:40:32;;;;;;;8.95;6.35;;;;;;;2.56;76.54;98572.44;5094889;28;20055;-63
2021/01/06 09:43:02;;;;;;;9.45;7.10;;;;;;;2.50;77.02;98577.44;5094714;28;20394;-63
2021/01/06 09:45:30;;;;;;;8.55;6.30;;;;;;;2.45;76.46;98572.69;5094680;28;20036;-63
2021/01/06 09:47:59;;;;;;;8.90;6.38;;;;;;;2.48;76.44;98572.34;5094238;28;20047;-63
2021/01/06 09:50:31;;;;;;;7.88;6.10;;;;;;;2.62;76.84;98574.47;5094016;28;20047;-63
2021/01/06 09:53:02;;;;;;;9.52;6.30;;;;;;;2.66;76.42;98565.38;5094586;28;20058;-63
2021/01/06 09:55:30;;;;;;;10.02;6.90;;;;;;;2.74;76.63;98572.47;5094416;28;20043;-63
2021/01/06 09:58:06;;;;;;;9.60;7.53;;;;;;;2.74;76.29;98569.88;5094644;28;20051;-63
2021/01/06 10:00:42;;;;;;;9.27;6.88;;;;;;;2.80;76.22;98579.69;5094652;28;20059;-63
2021/01/06 10:03:09;;;;;;;9.43;7.30;;;;;;;2.83;76.52;98579.41;5094509;28;20531;-64
2021/01/06 10:05:47;;;;;;;9.15;6.90;;;;;;;2.86;76.04;98576.50;5094251;28;20485;-64
2021/01/06 10:08:30;;;;;;;10.48;7.63;;;;;;;2.72;75.76;98577.81;5094491;28;20044;-64
2021/01/06 10:11:06;;;;;;;11.25;7.57;;;;;;;2.61;76.21;98577.22;5094427;28;20083;-64
2021/01/06 10:13:52;;;;;;;8.13;6.38;;;;;;;2.58;76.44;98578.34;5093296;28;20051;-63
2021/01/06 10:16:25;;;;;;;10.23;7.28;;;;;;;2.58;76.72;98578.34;5094332;28;20043;-64
2021/01/06 10:19:04;;;;;;;9.68;6.75;;;;;;;2.66;76.74;98577.63;5094566;28;20044;-63
2021/01/06 10:21:41;;;;;;;6.90;5.97;;;;;;;2.65;76.30;98575.94;5094262;28;20047;-63
2021/01/06 10:24:21;;;;;;;8.98;6.50;;;;;;;2.73;76.35;98573.44;5094223;28;20512;-63
2021/01/06 10:27:01;;;;;;;8.38;6.53;;;;;;;2.72;76.56;98571.78;5094024;28;20044;-63
2021/01/06 10:29:40;;;;;;;9.40;6.57;;;;;;;2.78;76.41;98573.81;5092657;28;20402;-64
2021/01/06 10:32:47;;;;;;;7.82;5.78;;;;;;;2.63;76.08;98576.13;5093966;28;20383;-64
2021/01/06 10:35:36;;;;;;;7.88;6.45;;;;;;;2.77;76.19;98576.56;5094283;28;20044;-63
2021/01/06 10:38:21;;;;;;;8.75;6.53;;;;;;;2.78;75.88;98571.22;5093949;28;20048;-63
2021/01/06 10:40:50;;;;;;;7.65;6.15;;;;;;;2.76;75.87;98569.72;5093832;28;20048;-64
2021/01/06 10:43:41;;;;;;;7.82;5.80;;;;;;;2.81;76.00;98564.84;5093749;28;20397;-64
2021/01/06 10:46:37;;;;;;;9.95;6.82;;;;;;;2.84;75.76;98565.38;5093720;28;20036;-64
2021/01/06 10:49:06;;;;;;;10.55;6.68;;;;;;;2.97;76.08;98559.78;5093742;28;20087;-64
2021/01/06 10:52:02;;;;;;;8.07;6.60;;;;;;;3.06;75.51;98547.59;5093655;28;20128;-64
2021/01/06 10:54:36;;;;;;;9.63;6.63;;;;;;;2.94;75.54;98557.50;5093482;28;20138;-64
2021/01/06 10:57:19;;;;;;;8.53;6.77;;;;;;;2.98;74.98;98549.22;5093504;28;20051;-64
2021/01/06 11:00:21;;;;;;;13.85;8.38;;;;;;;3.10;75.60;98548.94;5093095;28;20490;-64
2021/01/06 11:03:20;;;;;;;9.80;7.28;;;;;;;3.19;75.25;98550.69;5093359;28;20486;-64
2021/01/06 11:06:01;;;;;;;7.95;6.72;;;;;;;3.22;75.14;98542.50;5093094;28;20036;-64
2021/01/06 11:08:47;;;;;;;10.98;6.97;;;;;;;3.11;74.87;98553.22;5093612;28;20058;-64
2021/01/06 11:11:24;;;;;;;8.00;6.55;;;;;;;3.15;75.07;98546.72;5093233;28;20048;-64
2021/01/06 11:14:20;;;;;;;8.23;6.68;;;;;;;3.17;74.69;98537.75;5093012;28;20035;-64
2021/01/06 11:16:50;;;;;;;12.85;7.35;;;;;;;3.22;74.84;98545.97;5092917;28;20044;-64
2021/01/06 11:19:42;;;;;;;8.48;6.50;;;;;;;3.30;74.78;98533.91;5093103;28;20040;-64
2021/01/06 11:22:28;;;;;;;11.52;7.65;;;;;;;3.32;74.77;98534.59;5093097;28;20040;-64
2021/01/06 11:24:57;;;;;;;9.40;6.95;;;;;;;3.38;74.38;98536.59;5092879;28;20117;-64
2021/01/06 11:27:45;;;;;;;9.05;7.07;;;;;;;3.21;74.13;98540.88;5092994;28;20040;-64
2021/01/06 11:30:22;;;;;;;9.77;6.88;;;;;;;3.17;74.01;98536.94;5093347;28;20032;-64
2021/01/06 11:33:10;;;;;;;9.07;6.38;;;;;;;3.24;74.27;98527.53;5093187;28;20047;-64
2021/01/06 11:35:46;;;;;;;9.55;6.50;;;;;;;3.34;74.19;98530.03;5092839;28;20458;-63
2021/01/06 11:38:46;;;;;;;8.25;6.72;;;;;;;3.33;74.05;98526.59;5093288;28;20044;-64
2021/01/06 11:41:15;;;;;;;6.75;5.50;;;;;;;3.29;73.89;98522.66;5092914;28;20086;-63
2021/01/06 11:43:52;;;;;;;9.20;6.13;;;;;;;3.26;73.58;98522.13;5092745;28;20042;-64
2021/01/06 11:46:45;;;;;;;7.47;5.80;;;;;;;3.32;73.59;98518.91;5092563;28;20037;-64
2021/01/06 11:49:23;;;;;;;7.00;5.82;;;;;;;3.41;73.58;98516.19;5091611;28;20410;-64
2021/01/06 11:52:21;;;;;;;9.27;6.53;;;;;;;3.36;73.44;98505.41;5092693;28;20391;-64
2021/01/06 11:54:54;;;;;;;7.35;5.72;;;;;;;3.42;73.60;98510.00;5092573;28;20048;-64
2021/01/06 11:57:32;;;;;;;6.55;5.13;;;;;;;3.36;72.71;98512.41;5092774;28;20481;-64
2021/01/06 12:00:18;;;;;;;7.43;5.40;;;;;;;3.37;73.36;98512.25;5092567;28;20032;-64
2021/01/06 12:03:00;;;;;;;7.57;6.35;;;;;;;3.46;73.33;98505.28;5091510;28;20040;-65
2021/01/06 12:05:31;;;;;;;7.47;5.85;;;;;;;3.35;73.08;98502.94;5092262;28;20055;-64
2021/01/06 12:08:14;;;;;;;8.52;6.22;;;;;;;3.29;73.29;98509.59;5092477;28;20501;-64
2021/01/06 12:11:09;;;;;;;7.88;5.95;;;;;;;3.22;73.09;98512.00;5092465;28;20097;-64
2021/01/06 12:13:47;;;;;;;7.25;5.80;;;;;;;3.25;73.29;98500.41;5092159;28;20040;-64